Time;durP1;ratioP1;P1;durP2;ratioP2;P2;SDS_P1;SDS_P2;PMS_P1;PMS_P2;Temp;Humidity;BMP_temperature;BMP_pressure;BME280_temperature;BME280_humidity;BME280_pressure;Samples;Min_cycle;Max_cycle;Signal;HPM_P1;HPM_P2
2022/07/01 00:00:50;;;;;;;1999.90;999.90;;;14.50;99.90;;;;;;4977132;28;20166;-67
2022/07/01 00:03:16;;;;;;;1999.90;999.90;;;14.50;99.90;;;;;;4978193;28;20180;-67
2022/07/01 00:05:42;;;;;;;1999.90;999.90;;;14.50;99.90;;;;;;4986248;28;20176;-68
2022/07/01 00:08:08;;;;;;;1999.90;999.90;;;14.50;99.90;;;;;;4986650;28;20439;-69
2022/07/01 00:10:35;;;;;;;1999.90;999.90;;;14.60;99.90;;;;;;4985892;28;20495;-69
2022/07/01 00:13:01;;;;;;;1999.90;999.90;;;14.50;99.90;;;;;;4988177;28;20420;-68
2022/07/01 00:15:27;;;;;;;1999.90;999.90;;;14.50;99.90;;;;;;4987280;28;20480;-68
2022/07/01 00:17:52;;;;;;;1999.90;999.90;;;14.50;99.90;;;;;;4985636;28;20209;-68
2022/07/01 00:20:18;;;;;;;1999.90;999.90;;;14.50;99.90;;;;;;4987806;28;20175;-67
2022/07/01 00:22:44;;;;;;;1999.90;999.90;;;14.50;99.90;;;;;;4987653;28;20640;-69
2022/07/01 00:25:10;;;;;;;1999.90;999.90;;;14.50;99.90;;;;;;4985927;28;20241;-69
2022/07/01 00:27:39;;;;;;;1999.90;999.90;;;14.50;99.90;;;;;;4987328;28;20178;-69
2022/07/01 00:30:07;;;;;;;1999.90;999.90;;;14.50;99.90;;;;;;4987089;28;20425;-69
2022/07/01 00:32:33;;;;;;;1999.90;999.90;;;14.50;99.90;;;;;;4968385;28;20927;-68
2022/07/01 00:34:58;;;;;;;1999.90;999.90;;;14.50;99.90;;;;;;4984570;28;20474;-67
2022/07/01 00:37:24;;;;;;;1999.90;999.90;;;14.50;99.90;;;;;;4984631;28;20210;-69
2022/07/01 00:39:49;;;;;;;1999.90;999.90;;;14.40;99.90;;;;;;4985485;28;20202;-68
2022/07/01 00:42:15;;;;;;;1999.90;999.90;;;14.40;99.90;;;;;;4984486;28;20623;-68
2022/07/01 00:44:41;;;;;;;1999.90;999.90;;;14.40;99.90;;;;;;4985173;28;20258;-67
2022/07/01 00:47:11;;;;;;;1999.90;999.90;;;14.40;99.90;;;;;;4983903;28;20176;-69
2022/07/01 00:49:38;;;;;;;1999.90;999.90;;;14.40;99.90;;;;;;4985101;28;20728;-67
2022/07/01 00:52:08;;;;;;;1999.90;999.90;;;14.40;99.90;;;;;;4989143;28;21009;-68
2022/07/01 00:54:36;;;;;;;1999.90;999.90;;;14.50;99.90;;;;;;4986806;28;20418;-68
2022/07/01 00:57:09;;;;;;;1999.90;999.90;;;14.40;99.90;;;;;;4985754;28;20401;-68
2022/07/01 00:59:35;;;;;;;1999.90;999.90;;;14.50;99.90;;;;;;4986341;28;20430;-69
2022/07/01 01:02:01;;;;;;;1999.90;999.90;;;14.40;99.90;;;;;;4986485;28;20408;-67
2022/07/01 01:04:27;;;;;;;1999.90;999.90;;;14.40;99.90;;;;;;4984705;28;20495;-67
2022/07/01 01:06:53;;;;;;;1999.90;999.90;;;14.40;99.90;;;;;;4983453;28;20416;-69
2022/07/01 01:09:18;;;;;;;1999.90;999.90;;;14.30;99.90;;;;;;4989490;28;20232;-68
2022/07/01 01:11:44;;;;;;;1999.90;999.90;;;14.40;99.90;;;;;;4983710;28;20700;-66
2022/07/01 01:14:10;;;;;;;1999.90;999.90;;;14.30;99.90;;;;;;4989656;28;20174;-68
2022/07/01 01:16:38;;;;;;;1999.90;999.90;;;14.40;99.90;;;;;;4987292;28;20189;-68
2022/07/01 01:19:07;;;;;;;1999.90;999.90;;;14.30;99.90;;;;;;4988737;28;20531;-68
2022/07/01 01:21:34;;;;;;;1999.90;999.90;;;14.30;99.90;;;;;;4990681;28;20406;-67
2022/07/01 01:23:59;;;;;;;1999.90;999.90;;;14.30;99.90;;;;;;4989541;28;20406;-67
2022/07/01 01:26:25;;;;;;;1999.90;999.90;;;14.20;99.90;;;;;;4989689;28;20407;-69
2022/07/01 01:28:51;;;;;;;1999.90;999.90;;;14.20;99.90;;;;;;4987971;28;20283;-68
2022/07/01 01:31:18;;;;;;;1999.90;999.90;;;14.30;99.90;;;;;;4989919;28;20176;-68
2022/07/01 01:33:44;;;;;;;1999.90;999.90;;;14.30;99.90;;;;;;4990319;28;20474;-68
2022/07/01 01:36:10;;;;;;;1999.90;999.90;;;14.20;99.90;;;;;;4988633;28;20412;-67
2022/07/01 01:38:37;;;;;;;1999.90;999.90;;;14.20;99.90;;;;;;4986916;28;20476;-67
2022/07/01 01:41:04;;;;;;;1999.90;999.90;;;14.20;99.90;;;;;;4989585;28;20998;-68
2022/07/01 01:43:30;;;;;;;1999.90;999.90;;;14.20;99.90;;;;;;4988110;28;20514;-68
2022/07/01 01:45:56;;;;;;;1999.90;999.90;;;14.20;99.90;;;;;;4987711;28;21116;-68
2022/07/01 01:48:21;;;;;;;1999.90;999.90;;;14.20;99.90;;;;;;4989228;28;20436;-69
2022/07/01 01:50:47;;;;;;;1999.90;999.90;;;14.10;99.90;;;;;;4986525;28;20297;-69
2022/07/01 01:53:13;;;;;;;1999.90;999.90;;;14.10;99.90;;;;;;4988368;28;20204;-68
2022/07/01 01:55:38;;;;;;;1999.90;999.90;;;14.20;99.90;;;;;;4985513;28;20237;-67
2022/07/01 01:58:04;;;;;;;1999.90;999.90;;;14.10;99.90;;;;;;4987166;28;20224;-69
2022/07/01 02:00:29;;;;;;;1999.90;999.90;;;14.20;99.90;;;;;;4987871;28;20171;-68
2022/07/01 02:02:55;;;;;;;1999.90;999.90;;;14.20;99.90;;;;;;4988099;28;20184;-68
2022/07/01 02:05:21;;;;;;;1999.90;999.90;;;14.20;99.90;;;;;;4987509;28;20191;-67
2022/07/01 02:07:47;;;;;;;1999.90;999.90;;;14.20;99.90;;;;;;4987913;28;20169;-68
2022/07/01 02:10:12;;;;;;;1999.90;999.90;;;14.20;99.90;;;;;;4985848;28;20415;-68
2022/07/01 02:12:38;;;;;;;1999.90;999.90;;;14.20;99.90;;;;;;4986526;28;20177;-68
2022/07/01 02:15:04;;;;;;;1999.90;999.90;;;14.20;99.90;;;;;;4984322;28;20178;-68
2022/07/01 02:17:30;;;;;;;1999.90;999.90;;;14.20;99.90;;;;;;4984268;28;20205;-69
2022/07/01 02:19:55;;;;;;;1999.90;999.90;;;14.30;99.90;;;;;;4985552;28;20420;-69
2022/07/01 02:22:21;;;;;;;1999.90;999.90;;;14.30;99.90;;;;;;4984593;28;20174;-68
2022/07/01 02:24:46;;;;;;;1999.90;999.90;;;14.30;99.90;;;;;;4984674;28;20174;-68
2022/07/01 02:27:12;;;;;;;1999.90;999.90;;;14.30;99.90;;;;;;4984458;28;20175;-69
2022/07/01 02:29:38;;;;;;;1999.90;999.90;;;14.30;99.90;;;;;;4984178;28;20228;-69
2022/07/01 02:32:04;;;;;;;1999.90;999.90;;;14.20;99.90;;;;;;4985872;28;20174;-68
2022/07/01 02:34:30;;;;;;;1999.90;999.90;;;14.30;99.90;;;;;;4984250;28;20452;-68
2022/07/01 02:36:56;;;;;;;1999.90;999.90;;;14.30;99.90;;;;;;4984353;28;20483;-67
2022/07/01 02:39:22;;;;;;;1999.90;999.90;;;14.30;99.90;;;;;;4985320;28;20287;-67
2022/07/01 02:44:34;;;;;;;1999.90;999.90;;;14.50;99.90;;;;;;4984599;28;20417;-68
2022/07/01 02:47:00;;;;;;;1999.90;999.90;;;14.50;99.90;;;;;;4983676;28;20408;-67
2022/07/01 02:49:25;;;;;;;1999.90;999.90;;;14.40;99.90;;;;;;4979050;28;20854;-67
2022/07/01 02:51:51;;;;;;;1999.90;999.90;;;14.40;99.90;;;;;;4982740;28;20548;-68
2022/07/01 02:54:17;;;;;;;1999.90;999.90;;;14.50;99.90;;;;;;4980045;28;20175;-68
2022/07/01 02:56:42;;;;;;;1999.90;999.90;;;14.50;99.90;;;;;;4982634;28;20278;-68
2022/07/01 02:59:08;;;;;;;1999.90;999.90;;;14.40;99.90;;;;;;4986005;28;20222;-67
2022/07/01 03:01:33;;;;;;;1999.90;999.90;;;14.40;99.90;;;;;;4984682;28;20659;-68
2022/07/01 03:03:59;;;;;;;1999.90;999.90;;;14.40;99.90;;;;;;4985032;28;20189;-68
2022/07/01 03:06:25;;;;;;;1999.90;999.90;;;14.30;99.90;;;;;;4983727;28;20271;-68
2022/07/01 03:08:50;;;;;;;1999.90;999.90;;;14.40;99.90;;;;;;4984083;28;20203;-68
2022/07/01 03:11:16;;;;;;;1999.90;999.90;;;14.40;99.90;;;;;;4984978;28;20177;-68
2022/07/01 03:13:42;;;;;;;1999.90;999.90;;;14.40;99.90;;;;;;4982482;28;20181;-68
2022/07/01 03:16:07;;;;;;;1999.90;999.90;;;14.40;99.90;;;;;;4981272;28;20170;-68
2022/07/01 03:18:33;;;;;;;1999.90;999.90;;;14.30;99.90;;;;;;4980919;28;20269;-69
2022/07/01 03:20:59;;;;;;;1999.90;999.90;;;14.30;99.90;;;;;;4980044;28;20185;-67
2022/07/01 03:23:24;;;;;;;1999.90;999.90;;;14.40;99.90;;;;;;4983402;28;20168;-67
2022/07/01 03:25:50;;;;;;;1999.90;999.90;;;14.40;99.90;;;;;;5014549;23;20234;-67
2022/07/01 03:28:17;;;;;;;1999.90;999.90;;;14.40;99.90;;;;;;4973052;28;20177;-67
2022/07/01 03:30:42;;;;;;;1999.90;999.90;;;14.40;99.90;;;;;;4973324;28;20735;-69
2022/07/01 03:33:08;;;;;;;1999.90;999.90;;;14.40;99.90;;;;;;4973439;28;20429;-67
2022/07/01 03:35:39;;;;;;;1999.90;999.90;;;14.40;99.90;;;;;;4973204;28;20191;-67
2022/07/01 03:38:05;;;;;;;1999.90;999.90;;;14.40;99.90;;;;;;4973127;28;20191;-67
2022/07/01 03:40:34;;;;;;;1999.90;999.90;;;14.40;99.90;;;;;;4973299;28;20419;-67
2022/07/01 03:43:00;;;;;;;1999.90;999.90;;;14.30;99.90;;;;;;4973256;28;20408;-67
2022/07/01 03:45:26;;;;;;;1999.90;999.90;;;14.30;99.90;;;;;;4973233;28;20940;-67
2022/07/01 03:47:51;;;;;;;1999.90;999.90;;;14.30;99.90;;;;;;4973093;28;20408;-67
2022/07/01 03:50:20;;;;;;;1999.90;999.90;;;14.20;99.90;;;;;;4973426;28;20175;-68
2022/07/01 03:52:45;;;;;;;1999.90;999.90;;;14.30;99.90;;;;;;4973451;28;20178;-68
2022/07/01 03:55:12;;;;;;;1999.90;999.90;;;14.20;99.90;;;;;;4973288;28;20424;-68
2022/07/01 03:57:38;;;;;;;1999.90;999.90;;;14.30;99.90;;;;;;4973056;28;20198;-68
2022/07/01 04:00:08;;;;;;;1999.90;999.90;;;14.20;99.90;;;;;;4977589;28;20405;-68
2022/07/01 04:02:33;;;;;;;1999.90;999.90;;;14.20;99.90;;;;;;4985263;28;20427;-68
2022/07/01 04:04:59;;;;;;;1999.90;999.90;;;14.20;99.90;;;;;;4985442;28;20496;-67
2022/07/01 04:07:26;;;;;;;1999.90;999.90;;;14.20;99.90;;;;;;4985523;28;20176;-68
2022/07/01 04:09:52;;;;;;;1999.90;999.90;;;14.20;99.90;;;;;;4985233;28;20175;-68
2022/07/01 04:12:18;;;;;;;1999.90;999.90;;;14.40;99.90;;;;;;4985360;28;20437;-68
2022/07/01 04:14:44;;;;;;;1999.90;999.90;;;14.40;99.90;;;;;;4986046;28;20430;-68
2022/07/01 04:17:10;;;;;;;1999.90;999.90;;;14.40;99.90;;;;;;4987416;28;20429;-68
2022/07/01 04:19:36;;;;;;;1999.90;999.90;;;14.40;99.90;;;;;;4986859;28;20420;-67
2022/07/01 04:24:46;;;;;;;1999.90;999.90;;;14.30;99.90;;;;;;4986335;28;20701;-68
2022/07/01 04:27:12;;;;;;;1999.90;999.90;;;14.30;99.90;;;;;;4987157;28;20460;-68
2022/07/01 04:29:38;;;;;;;1999.90;999.90;;;14.30;99.90;;;;;;4975494;28;20163;-69
2022/07/01 04:32:04;;;;;;;1999.90;999.90;;;14.40;99.90;;;;;;4972818;28;20172;-67
2022/07/01 04:34:29;;;;;;;1999.90;999.90;;;14.40;99.90;;;;;;4972856;28;20195;-67
2022/07/01 04:36:56;;;;;;;1999.90;999.90;;;14.40;99.90;;;;;;4972400;28;20777;-68
2022/07/01 04:39:21;;;;;;;1999.90;999.90;;;14.40;99.90;;;;;;4972653;28;20202;-67
2022/07/01 04:41:59;;;;;;;1999.90;999.90;;;14.40;99.90;;;;;;4976059;28;20500;-68
2022/07/01 04:44:25;;;;;;;1999.90;999.90;;;14.40;99.90;;;;;;4976412;28;20335;-67
2022/07/01 04:46:51;;;;;;;1999.90;999.90;;;14.40;99.90;;;;;;4976157;28;20481;-67
2022/07/01 04:49:16;;;;;;;1999.90;999.90;;;14.30;99.90;;;;;;4976284;28;20555;-67
2022/07/01 04:51:42;;;;;;;1999.90;999.90;;;14.40;99.90;;;;;;4976492;28;20649;-67
2022/07/01 04:54:09;;;;;;;1999.90;999.90;;;14.50;99.90;;;;;;4976342;28;20181;-67
2022/07/01 04:56:35;;;;;;;1999.90;999.90;;;14.50;99.90;;;;;;4975934;28;20255;-67
2022/07/01 04:59:01;;;;;;;1999.90;999.90;;;14.60;99.90;;;;;;4976091;28;20475;-67
2022/07/01 05:01:28;;;;;;;1999.90;999.90;;;14.60;99.90;;;;;;4976172;28;20420;-68
2022/07/01 05:03:54;;;;;;;1999.90;999.90;;;14.70;99.90;;;;;;4976131;28;20401;-67
2022/07/01 05:06:20;;;;;;;1999.90;999.90;;;14.70;99.90;;;;;;4975817;28;20426;-68
2022/07/01 05:08:46;;;;;;;1999.90;999.90;;;14.70;99.90;;;;;;4976190;28;20409;-66
2022/07/01 05:11:11;;;;;;;1999.90;999.90;;;14.80;99.90;;;;;;4975898;28;20180;-67
2022/07/01 05:13:37;;;;;;;1999.90;999.90;;;14.80;99.90;;;;;;4975938;28;20265;-68
2022/07/01 05:16:03;;;;;;;1999.90;999.90;;;14.90;99.90;;;;;;4975514;28;20193;-66
2022/07/01 05:23:58;;;;;;;1999.90;999.90;;;15.10;99.90;;;;;;4975772;28;20454;-68
2022/07/01 05:26:25;;;;;;;1999.90;999.90;;;15.10;99.90;;;;;;4975334;28;20463;-70
2022/07/01 05:28:52;;;;;;;1999.90;999.90;;;15.00;99.90;;;;;;4975658;28;20638;-66
2022/07/01 05:31:18;;;;;;;1999.90;999.90;;;15.10;99.90;;;;;;4975564;28;20413;-67
2022/07/01 05:33:44;;;;;;;1999.90;999.90;;;15.00;99.90;;;;;;4975670;28;20906;-67
2022/07/01 05:36:10;;;;;;;1999.90;999.90;;;15.00;99.90;;;;;;4975054;28;20428;-68
2022/07/01 05:38:36;;;;;;;1999.90;999.90;;;15.00;99.90;;;;;;4975341;28;20203;-67
2022/07/01 05:41:02;;;;;;;1999.90;999.90;;;15.00;99.90;;;;;;4975368;28;20399;-67
2022/07/01 05:43:29;;;;;;;1999.90;999.90;;;15.00;99.90;;;;;;4975273;28;20398;-68
2022/07/01 05:45:54;;;;;;;1999.90;999.90;;;15.00;99.90;;;;;;4984153;28;20555;-68
2022/07/01 05:48:20;;;;;;;1999.90;999.90;;;15.00;99.90;;;;;;4985245;28;20408;-68
2022/07/01 05:50:47;;;;;;;1999.90;999.90;;;15.00;99.90;;;;;;4984909;28;20229;-66
2022/07/01 05:53:12;;;;;;;1999.90;999.90;;;15.10;99.90;;;;;;4984185;28;20195;-67
2022/07/01 05:55:38;;;;;;;1999.90;999.90;;;15.10;99.90;;;;;;4985607;28;20851;-67
2022/07/01 05:58:05;;;;;;;1999.90;999.90;;;15.00;99.90;;;;;;4985979;28;20663;-67
2022/07/01 06:00:31;;;;;;;1999.90;999.90;;;15.10;99.90;;;;;;4986168;28;20183;-68
2022/07/01 06:02:56;;;;;;;1999.90;999.90;;;15.10;99.90;;;;;;4978239;28;20421;-67
2022/07/01 06:05:22;;;;;;;1999.90;999.90;;;15.10;99.90;;;;;;4974957;28;20665;-67
2022/07/01 06:07:48;;;;;;;1999.90;999.90;;;15.10;99.90;;;;;;4974653;28;20190;-67
2022/07/01 06:10:14;;;;;;;1999.90;999.90;;;15.10;99.90;;;;;;4974869;28;20984;-67
2022/07/01 06:12:40;;;;;;;1999.90;999.90;;;15.20;99.90;;;;;;4974790;28;20215;-67
2022/07/01 06:15:08;;;;;;;1999.90;999.90;;;15.30;99.90;;;;;;4974664;28;20277;-67
2022/07/01 06:17:35;;;;;;;1999.90;999.90;;;15.40;99.90;;;;;;4974356;28;20459;-67
2022/07/01 06:20:00;;;;;;;1999.90;999.90;;;15.50;99.90;;;;;;4974672;28;20953;-67
2022/07/01 06:22:26;;;;;;;1999.90;999.90;;;15.60;99.90;;;;;;4974647;28;20482;-67
2022/07/01 06:24:51;;;;;;;1999.90;999.90;;;15.60;99.90;;;;;;4974492;28;20199;-67
2022/07/01 06:27:17;;;;;;;1999.90;999.90;;;15.60;99.90;;;;;;4974178;28;20202;-68
2022/07/01 06:29:43;;;;;;;1999.90;999.90;;;15.60;99.90;;;;;;4974502;28;20587;-67
2022/07/01 06:32:08;;;;;;;1999.90;999.90;;;15.70;99.90;;;;;;4974441;28;20176;-67
2022/07/01 06:34:35;;;;;;;1999.90;999.90;;;15.80;99.90;;;;;;4974277;28;20188;-67
2022/07/01 06:37:03;;;;;;;1999.90;999.90;;;15.80;99.90;;;;;;4974060;28;20200;-67
2022/07/01 06:39:29;;;;;;;1999.90;999.90;;;15.90;99.90;;;;;;4974302;28;20956;-67
2022/07/01 06:41:55;;;;;;;1999.90;999.90;;;15.90;99.90;;;;;;4979237;28;20465;-68
2022/07/01 06:44:21;;;;;;;1999.90;999.90;;;16.10;99.90;;;;;;4986165;28;20914;-67
2022/07/01 06:46:47;;;;;;;1999.90;999.90;;;16.10;99.90;;;;;;4984968;28;20450;-68
2022/07/01 06:49:13;;;;;;;1999.90;999.90;;;16.10;99.90;;;;;;4985035;28;20172;-67
2022/07/01 06:51:39;;;;;;;1999.90;999.90;;;16.10;99.90;;;;;;4985422;28;20170;-68
2022/07/01 06:54:04;;;;;;;1999.90;999.90;;;16.10;99.90;;;;;;4984154;28;20460;-68
2022/07/01 06:56:30;;;;;;;1999.90;999.90;;;16.10;99.90;;;;;;4984856;28;20416;-67
2022/07/01 06:58:56;;;;;;;1999.90;999.90;;;16.10;99.90;;;;;;4986817;28;20215;-67
2022/07/01 07:01:23;;;;;;;1999.90;999.90;;;16.10;99.90;;;;;;4986937;28;20414;-68
2022/07/01 07:03:49;;;;;;;1999.90;999.90;;;16.20;99.90;;;;;;4984467;28;20512;-68
2022/07/01 07:06:15;;;;;;;1999.90;999.90;;;16.10;99.90;;;;;;4985659;28;20954;-68
2022/07/01 07:08:40;;;;;;;1999.90;999.90;;;16.20;99.90;;;;;;4986396;28;20416;-68
2022/07/01 07:11:08;;;;;;;1999.90;999.90;;;16.30;99.90;;;;;;4977546;28;20177;-67
2022/07/01 07:13:35;;;;;;;1999.90;999.90;;;16.30;99.90;;;;;;4973823;28;20406;-67
2022/07/01 07:16:00;;;;;;;1999.90;999.90;;;16.40;99.90;;;;;;4973344;28;20426;-67
2022/07/01 07:18:26;;;;;;;1999.90;999.90;;;16.50;99.90;;;;;;4973326;28;20896;-67
2022/07/01 07:20:52;;;;;;;1999.90;999.90;;;16.70;99.90;;;;;;4973491;28;20162;-67
2022/07/01 07:23:17;;;;;;;1999.90;999.90;;;16.90;99.90;;;;;;4973553;28;20253;-67
2022/07/01 07:25:43;;;;;;;1999.90;999.90;;;16.90;99.90;;;;;;4973429;28;20208;-68
2022/07/01 07:28:08;;;;;;;1999.90;999.90;;;17.10;99.90;;;;;;4973310;28;20228;-67
2022/07/01 07:30:34;;;;;;;1999.90;999.90;;;17.00;99.90;;;;;;4973413;28;20178;-68
2022/07/01 07:33:00;;;;;;;1999.90;999.90;;;17.00;99.90;;;;;;4973398;28;20181;-68
2022/07/01 07:35:25;;;;;;;1999.90;999.90;;;17.20;99.90;;;;;;4973440;28;20196;-68
2022/07/01 07:37:51;;;;;;;1999.90;999.90;;;17.20;99.90;;;;;;4973191;28;20208;-68
2022/07/01 07:40:19;;;;;;;1999.90;999.90;;;17.40;99.90;;;;;;4973299;28;20674;-68
2022/07/01 07:42:46;;;;;;;1999.90;999.90;;;17.60;99.90;;;;;;4973380;28;20180;-68
2022/07/01 07:45:16;;;;;;;1999.90;999.90;;;17.80;99.90;;;;;;4973310;28;20421;-68
2022/07/01 07:47:46;;;;;;;1999.90;999.90;;;18.00;99.90;;;;;;4973068;28;20403;-68
2022/07/01 07:50:12;;;;;;;1999.90;999.90;;;18.00;99.90;;;;;;4973378;28;20404;-68
2022/07/01 07:52:39;;;;;;;1999.90;999.90;;;18.10;99.90;;;;;;4973132;28;20412;-67
2022/07/01 07:55:07;;;;;;;1999.90;999.90;;;18.00;99.90;;;;;;4973273;28;20440;-67
2022/07/01 07:57:33;;;;;;;1999.90;999.90;;;18.00;99.90;;;;;;4972862;28;20990;-67
2022/07/01 07:59:59;;;;;;;1999.90;999.90;;;18.10;99.90;;;;;;4973237;28;20409;-67
2022/07/01 08:02:25;;;;;;;1999.90;999.90;;;18.20;99.90;;;;;;4973030;28;20452;-67
2022/07/01 08:04:50;;;;;;;1999.90;999.90;;;18.20;99.90;;;;;;4973077;28;20733;-67
2022/07/01 08:07:16;;;;;;;1999.90;999.90;;;18.20;99.90;;;;;;4972772;28;20173;-67
2022/07/01 08:09:46;;;;;;;1999.90;999.90;;;18.20;99.90;;;;;;4973041;28;20156;-67
2022/07/01 08:12:12;;;;;;;1999.90;999.90;;;18.20;99.90;;;;;;4973029;28;20165;-67
2022/07/01 08:14:37;;;;;;;1999.90;999.90;;;18.30;99.90;;;;;;4972954;28;20812;-67
2022/07/01 08:17:03;;;;;;;1999.90;999.90;;;18.40;99.90;;;;;;4976575;28;20400;-67
2022/07/01 08:19:29;;;;;;;1999.90;999.90;;;18.60;99.90;;;;;;4976705;28;20460;-67
2022/07/01 08:21:56;;;;;;;1999.90;999.90;;;18.70;99.90;;;;;;4976764;28;20384;-67
2022/07/01 08:24:21;;;;;;;1999.90;999.90;;;18.60;99.90;;;;;;4976648;28;20245;-67
2022/07/01 08:26:47;;;;;;;1999.90;999.90;;;18.60;99.90;;;;;;4976469;28;20895;-67
2022/07/01 08:29:12;;;;;;;1999.90;999.90;;;18.60;99.90;;;;;;4976939;28;20565;-68
2022/07/01 08:31:38;;;;;;;1999.90;999.90;;;18.80;99.90;;;;;;4976643;28;20170;-67
2022/07/01 08:34:03;;;;;;;1999.90;999.90;;;19.10;99.90;;;;;;4976474;28;20171;-67
2022/07/01 08:36:29;;;;;;;1999.90;999.90;;;19.30;99.90;;;;;;4976248;28;20602;-67
2022/07/01 08:38:55;;;;;;;1999.90;999.90;;;19.50;99.90;;;;;;4976480;28;20207;-67
2022/07/01 08:41:20;;;;;;;1999.90;999.90;;;19.60;99.90;;;;;;4976415;28;20180;-67
2022/07/01 08:43:46;;;;;;;1999.90;999.90;;;19.70;99.90;;;;;;4976366;28;20687;-67
2022/07/01 08:46:12;;;;;;;1999.90;999.90;;;19.70;99.90;;;;;;4976319;28;20203;-67
2022/07/01 08:48:42;;;;;;;1999.90;999.90;;;19.90;99.90;;;;;;4976329;28;20408;-67
2022/07/01 08:51:08;;;;;;;1999.90;999.90;;;19.90;99.90;;;;;;4976520;28;20219;-67
2022/07/01 08:53:34;;;;;;;1999.90;999.90;;;19.70;99.90;;;;;;4976354;28;20444;-67
2022/07/01 08:58:45;;;;;;;1999.90;999.90;;;19.50;99.90;;;;;;4976224;28;20204;-67
2022/07/01 09:01:20;;;;;;;1999.90;999.90;;;19.50;99.90;;;;;;4976220;28;20454;-67
2022/07/01 09:03:46;;;;;;;1999.90;999.90;;;19.40;99.90;;;;;;4976380;28;20405;-67
2022/07/01 09:06:19;;;;;;;1999.90;999.90;;;19.20;99.90;;;;;;4975854;28;20436;-67
2022/07/01 09:08:46;;;;;;;1999.90;999.90;;;19.10;99.90;;;;;;4976152;28;20415;-67
2022/07/01 09:11:16;;;;;;;1999.90;999.90;;;19.00;99.90;;;;;;4975923;28;20496;-67
2022/07/01 09:13:43;;;;;;;1999.90;999.90;;;19.00;99.90;;;;;;4975957;28;20416;-67
2022/07/01 09:16:16;;;;;;;1999.90;999.90;;;19.10;99.90;;;;;;4976000;28;20444;-67
2022/07/01 09:19:03;;;;;;;1999.90;999.90;;;19.30;99.90;;;;;;4975965;28;20862;-67
2022/07/01 09:21:31;;;;;;;1999.90;999.90;;;19.50;99.90;;;;;;4975894;28;20417;-67
2022/07/01 09:24:04;;;;;;;1999.90;999.90;;;19.60;99.90;;;;;;4975865;28;20800;-67
2022/07/01 09:26:31;;;;;;;1999.90;999.90;;;19.80;99.90;;;;;;5016468;23;20543;-69
2022/07/01 09:28:57;;;;;;;1999.90;999.90;;;20.00;99.90;;;;;;4976296;28;20426;-69
2022/07/01 09:31:33;;;;;;;1999.90;999.90;;;20.20;99.90;;;;;;4976033;28;20402;-69
2022/07/01 09:34:03;;;;;;;1999.90;999.90;;;20.30;99.90;;;;;;4975872;28;20496;-69
2022/07/01 09:36:29;;;;;;;1999.90;999.90;;;20.40;99.90;;;;;;4975549;28;20508;-69
2022/07/01 09:38:54;;;;;;;1999.90;999.90;;;20.50;99.90;;;;;;4975927;28;20532;-69
2022/07/01 09:41:23;;;;;;;1999.90;999.90;;;20.40;99.90;;;;;;4975992;28;20635;-69
2022/07/01 09:43:49;;;;;;;1999.90;999.90;;;20.40;99.90;;;;;;4975720;28;20162;-69
2022/07/01 09:46:14;;;;;;;1999.90;999.90;;;20.50;99.90;;;;;;4975102;28;20485;-69
2022/07/01 09:48:40;;;;;;;1999.90;999.90;;;20.50;99.90;;;;;;4975504;28;20174;-69
2022/07/01 09:51:07;;;;;;;1999.90;999.90;;;20.60;99.90;;;;;;4975391;28;20176;-68
2022/07/01 09:53:33;;;;;;;1999.90;999.90;;;20.80;99.90;;;;;;4975351;28;20180;-69
2022/07/01 09:55:59;;;;;;;1999.90;999.90;;;21.20;99.90;;;;;;4975070;28;20439;-69
2022/07/01 09:58:25;;;;;;;1999.90;999.90;;;21.40;99.90;;;;;;4975080;28;20453;-69
2022/07/01 10:00:53;;;;;;;1999.90;999.90;;;21.50;99.90;;;;;;4974992;28;20385;-70
2022/07/01 10:03:21;;;;;;;1999.90;999.90;;;21.60;99.90;;;;;;4975063;28;20467;-69
2022/07/01 10:05:57;;;;;;;1999.90;999.90;;;21.50;99.90;;;;;;4974931;28;20497;-69
2022/07/01 10:08:55;;;;;;;1999.90;999.90;;;21.30;99.90;;;;;;4975006;28;20895;-69
2022/07/01 10:11:42;;;;;;;1999.90;999.90;;;21.00;99.90;;;;;;4975174;28;20412;-69
2022/07/01 10:14:10;;;;;;;1999.90;999.90;;;20.70;99.90;;;;;;4974744;28;20402;-68
2022/07/01 10:16:36;;;;;;;1999.90;999.90;;;20.60;99.90;;;;;;4974661;28;20427;-69
2022/07/01 10:19:20;;;;;;;1999.90;999.90;;;20.80;99.90;;;;;;4975201;28;20564;-69
2022/07/01 10:21:46;;;;;;;1999.90;999.90;;;20.90;99.90;;;;;;4975087;28;20408;-69
2022/07/01 10:24:13;;;;;;;1999.90;999.90;;;21.10;99.90;;;;;;4974770;28;20822;-69
2022/07/01 10:26:40;;;;;;;1999.90;999.90;;;21.40;99.90;;;;;;4973979;28;20280;-69
2022/07/01 10:29:32;;;;;;;1999.90;999.90;;;21.70;99.90;;;;;;4974443;28;20407;-69
2022/07/01 10:32:21;;;;;;;1999.90;999.90;;;22.00;99.90;;;;;;4974566;28;20411;-69
2022/07/01 10:34:47;;;;;;;1999.90;999.90;;;22.10;99.90;;;;;;4962228;28;20445;-67
2022/07/01 10:37:13;;;;;;;1999.90;999.90;;;22.10;99.90;;;;;;4974119;28;20466;-70
2022/07/01 10:39:53;;;;;;;1999.90;999.90;;;22.10;99.90;;;;;;4974186;28;20212;-70
2022/07/01 10:42:19;;;;;;;1999.90;999.90;;;22.00;99.90;;;;;;4974270;28;20410;-69
2022/07/01 10:45:05;;;;;;;1999.90;999.90;;;21.80;99.90;;;;;;4974108;28;20940;-69
2022/07/01 10:47:31;;;;;;;1999.90;999.90;;;21.60;99.90;;;;;;4973775;28;20511;-69
2022/07/01 10:50:04;;;;;;;1999.90;999.90;;;21.60;99.90;;;;;;4973857;28;20409;-68
2022/07/01 10:52:30;;;;;;;1999.90;999.90;;;21.40;99.90;;;;;;4972948;28;20523;-70
2022/07/01 10:54:57;;;;;;;1999.90;999.90;;;21.40;99.90;;;;;;4974176;28;20442;-69
2022/07/01 10:57:27;;;;;;;1999.90;999.90;;;21.30;99.90;;;;;;4973732;28;20530;-70
2022/07/01 10:59:58;;;;;;;1999.90;999.90;;;21.30;99.90;;;;;;4973655;28;20414;-70
2022/07/01 11:02:25;;;;;;;1999.90;999.90;;;21.60;99.90;;;;;;4974043;28;20851;-70
2022/07/01 11:04:56;;;;;;;1999.90;999.90;;;21.90;99.90;;;;;;4973847;28;20493;-69
2022/07/01 11:07:25;;;;;;;1999.90;999.90;;;21.80;99.90;;;;;;4973616;28;20474;-69
2022/07/01 11:09:50;;;;;;;1999.90;999.90;;;22.00;99.90;;;;;;4973875;28;20409;-70
2022/07/01 11:12:19;;;;;;;1999.90;999.90;;;22.20;99.90;;;;;;4973926;28;20393;-69
2022/07/01 11:14:44;;;;;;;1999.90;999.90;;;22.20;99.90;;;;;;4973677;28;20559;-70
2022/07/01 11:17:11;;;;;;;1999.90;999.90;;;22.20;99.90;;;;;;4973503;28;20494;-70
2022/07/01 11:19:37;;;;;;;1999.90;999.90;;;22.40;99.90;;;;;;4973684;28;20201;-69
2022/07/01 11:22:05;;;;;;;1999.90;999.90;;;22.60;99.90;;;;;;4973705;28;20415;-70
2022/07/01 11:24:30;;;;;;;1999.90;999.90;;;22.70;99.60;;;;;;4973395;28;20414;-69
2022/07/01 11:27:06;;;;;;;1999.90;999.90;;;22.60;97.40;;;;;;4973368;28;20389;-68
2022/07/01 11:29:31;;;;;;;1999.90;999.90;;;22.80;98.10;;;;;;4973591;28;20642;-70
2022/07/01 11:31:57;;;;;;;1999.90;999.90;;;22.90;99.90;;;;;;4973520;28;20466;-70
2022/07/01 11:34:23;;;;;;;1999.90;999.90;;;23.20;99.90;;;;;;4973490;28;20228;-70
2022/07/01 11:39:35;;;;;;;1999.90;999.90;;;23.30;97.50;;;;;;4973383;28;20252;-70
2022/07/01 11:42:04;;;;;;;1999.90;999.90;;;23.30;96.50;;;;;;4973574;28;20412;-68
2022/07/01 11:44:42;;;;;;;1999.90;999.90;;;23.20;97.80;;;;;;4973509;28;20903;-70
2022/07/01 11:47:21;;;;;;;1999.90;999.90;;;22.80;96.40;;;;;;4973185;28;20471;-70
2022/07/01 11:49:48;;;;;;;1999.90;999.90;;;22.50;98.70;;;;;;4972800;28;20493;-70
2022/07/01 11:52:15;;;;;;;1999.90;999.90;;;22.10;99.90;;;;;;4971970;28;20941;-70
2022/07/01 11:54:44;;;;;;;1999.90;999.90;;;21.90;99.90;;;;;;4973131;28;20375;-70
2022/07/01 11:57:14;;;;;;;1999.90;999.90;;;21.60;99.90;;;;;;4973167;28;20901;-70
2022/07/01 11:59:40;;;;;;;1999.90;999.90;;;21.50;99.90;;;;;;4973161;28;20459;-70
2022/07/01 12:02:08;;;;;;;1999.90;999.90;;;21.50;99.90;;;;;;4973171;28;20426;-70
2022/07/01 12:04:34;;;;;;;1999.90;999.90;;;21.60;99.90;;;;;;4973034;28;20402;-70
2022/07/01 12:07:00;;;;;;;1999.90;999.90;;;21.70;99.90;;;;;;4972781;28;20412;-70
2022/07/01 12:09:27;;;;;;;1999.90;999.90;;;22.00;99.90;;;;;;4973127;28;20503;-70
2022/07/01 12:11:53;;;;;;;1999.90;999.90;;;22.50;99.90;;;;;;4973107;28;20389;-70
2022/07/01 12:14:23;;;;;;;1999.90;999.90;;;23.10;94.80;;;;;;4973054;28;20387;-70